createdAt,value
2018-04-29T00:01:52.271Z,1.53
2018-04-29T00:04:19.742Z,1.40
2018-04-29T00:06:47.209Z,1.60
2018-04-29T00:09:14.751Z,1.40
2018-04-29T00:11:42.385Z,1.60
2018-04-29T00:14:09.892Z,1.70
2018-04-29T00:16:37.431Z,1.60
2018-04-29T00:19:04.892Z,1.70
2018-04-29T00:21:32.527Z,1.40
2018-04-29T00:24:00.020Z,1.80
2018-04-29T00:26:27.476Z,1.10
2018-04-29T00:28:55.033Z,1.70
2018-04-29T00:31:22.656Z,1.40
2018-04-29T00:33:50.162Z,1.60
2018-04-29T00:36:17.619Z,1.60
2018-04-29T00:38:45.164Z,1.60
2018-04-29T00:41:12.927Z,1.57
2018-04-29T00:43:40.388Z,1.40
2018-04-29T00:46:07.902Z,1.60
2018-04-29T00:48:35.360Z,1.47
2018-04-29T00:51:02.971Z,1.50
2018-04-29T00:53:30.535Z,1.40
2018-04-29T00:55:57.984Z,1.20
2018-04-29T00:58:25.626Z,1.50
2018-04-29T01:00:53.139Z,1.30
2018-04-29T01:03:20.596Z,1.43
2018-04-29T01:05:48.123Z,1.50
2018-04-29T01:08:15.758Z,1.53
2018-04-29T01:10:43.242Z,1.30
2018-04-29T01:13:10.728Z,2.50
2018-04-29T01:15:38.181Z,1.60
2018-04-29T01:18:05.720Z,1.83
2018-04-29T01:20:33.488Z,1.33
2018-04-29T01:23:01.253Z,1.87
2018-04-29T01:25:28.882Z,1.30
2018-04-29T01:27:56.353Z,1.30
2018-04-29T01:30:23.943Z,1.37
2018-04-29T01:32:51.570Z,1.30
2018-04-29T01:35:19.023Z,1.37
2018-04-29T01:37:46.619Z,1.40
2018-04-29T01:40:14.075Z,1.67
2018-04-29T01:42:41.732Z,1.50
2018-04-29T01:45:09.292Z,1.60
2018-04-29T01:47:36.755Z,1.23
2018-04-29T01:50:04.395Z,1.40
2018-04-29T01:52:31.883Z,1.50
2018-04-29T01:54:59.439Z,1.57
2018-04-29T01:57:27.201Z,1.53
2018-04-29T01:59:54.651Z,1.50
2018-04-29T02:02:22.116Z,1.47
2018-04-29T02:04:49.752Z,1.40
2018-04-29T02:07:17.208Z,1.30
2018-04-29T02:09:44.703Z,1.60
2018-04-29T02:12:12.260Z,1.70
2018-04-29T02:14:40.022Z,1.60
2018-04-29T02:17:07.664Z,1.87
2018-04-29T02:19:35.116Z,1.40
2018-04-29T02:22:02.606Z,1.30
2018-04-29T02:24:30.172Z,1.50
2018-04-29T02:26:57.792Z,1.50
2018-04-29T02:29:25.295Z,1.43
2018-04-29T02:31:52.848Z,1.30
2018-04-29T02:34:20.303Z,1.33
2018-04-29T02:36:47.939Z,1.80
2018-04-29T02:39:15.523Z,1.53
2018-04-29T02:41:43.290Z,1.70
2018-04-29T02:44:10.752Z,1.30
2018-04-29T02:46:38.519Z,1.37
2018-04-29T02:49:05.976Z,1.17
2018-04-29T02:51:33.603Z,1.37
2018-04-29T02:54:01.103Z,1.40
2018-04-29T02:56:28.547Z,1.47
2018-04-29T02:58:56.017Z,1.20
2018-04-29T03:01:23.572Z,1.40
2018-04-29T03:03:51.339Z,1.73
2018-04-29T03:06:18.795Z,1.67
2018-04-29T03:08:46.431Z,1.13
2018-04-29T03:11:14.020Z,1.37
2018-04-29T03:13:41.779Z,1.23
2018-04-29T03:16:09.422Z,1.20
2018-04-29T03:18:37.011Z,1.40
2018-04-29T03:21:04.644Z,1.37
2018-04-29T03:23:32.180Z,1.33
2018-04-29T03:25:59.639Z,1.70
2018-04-29T03:28:27.152Z,1.23
2018-04-29T03:30:54.792Z,1.20
2018-04-29T03:33:22.379Z,1.40
2018-04-29T03:35:50.128Z,1.57
2018-04-29T03:38:17.597Z,1.20
2018-04-29T03:40:45.236Z,1.30
2018-04-29T03:43:12.811Z,1.50
2018-04-29T03:45:40.457Z,1.30
2018-04-29T03:48:08.041Z,1.27
2018-04-29T03:50:35.696Z,1.43
2018-04-29T03:53:03.167Z,1.23
2018-04-29T03:55:30.724Z,1.03
2018-04-29T03:58:10.156Z,1.50
2018-04-29T04:00:58.507Z,1.30
2018-04-29T04:03:37.791Z,1.10
2018-04-29T04:06:05.308Z,1.07
2018-04-29T04:08:32.766Z,1.23
2018-04-29T04:11:00.237Z,1.50
2018-04-29T04:13:27.680Z,1.70
2018-04-29T04:15:55.231Z,1.40
2018-04-29T04:18:22.873Z,1.40
2018-04-29T04:20:50.377Z,1.53
2018-04-29T04:23:18.843Z,1.57
2018-04-29T04:25:46.476Z,1.07
2018-04-29T04:28:13.934Z,1.50
2018-04-29T04:30:41.521Z,1.37
2018-04-29T04:33:09.284Z,1.13
2018-04-29T04:35:37.050Z,1.30
2018-04-29T04:38:04.500Z,1.50
2018-04-29T04:40:32.148Z,1.73
2018-04-29T04:42:59.600Z,1.23
2018-04-29T04:45:27.072Z,1.60
2018-04-29T04:47:54.515Z,1.30
2018-04-29T04:50:22.011Z,1.33
2018-04-29T04:52:49.455Z,1.20
2018-04-29T04:55:16.915Z,1.30
2018-04-29T04:57:44.368Z,2.23
2018-04-29T05:00:11.939Z,1.83
2018-04-29T05:02:39.575Z,1.67
2018-04-29T05:05:07.164Z,1.40
2018-04-29T05:07:34.795Z,1.50
2018-04-29T05:10:02.298Z,1.77
2018-04-29T05:12:29.749Z,1.50
2018-04-29T05:14:57.308Z,1.60
2018-04-29T05:17:24.759Z,1.47
2018-04-29T05:19:52.520Z,1.70
2018-04-29T05:22:20.157Z,1.33
2018-04-29T05:24:47.751Z,1.40
2018-04-29T05:27:15.389Z,1.23
2018-04-29T05:29:42.922Z,1.40
2018-04-29T05:32:10.376Z,1.17
2018-04-29T05:34:37.888Z,1.57
2018-04-29T05:37:05.520Z,1.20
2018-04-29T05:39:32.963Z,1.60
2018-04-29T05:42:00.436Z,1.43
2018-04-29T05:44:27.897Z,1.50
2018-04-29T05:46:55.499Z,1.40
2018-04-29T05:49:23.115Z,1.27
2018-04-29T05:51:50.647Z,1.57
2018-04-29T05:54:18.099Z,1.40
2018-04-29T05:56:45.555Z,1.20
2018-04-29T05:59:13.004Z,1.13
2018-04-29T06:01:40.451Z,1.33
2018-04-29T06:04:08.819Z,1.30
2018-04-29T06:06:36.352Z,1.13
2018-04-29T06:09:05.324Z,1.10
2018-04-29T06:11:32.783Z,1.43
2018-04-29T06:14:00.269Z,1.20
2018-04-29T06:16:27.748Z,1.50
2018-04-29T06:18:55.392Z,1.00
2018-04-29T06:21:22.857Z,1.03
2018-04-29T06:23:50.331Z,1.30
2018-04-29T06:26:18.703Z,1.40
2018-04-29T06:28:46.196Z,1.27
2018-04-29T06:31:13.720Z,1.20
2018-04-29T06:33:41.185Z,1.20
2018-04-29T06:36:08.947Z,1.40
2018-04-29T06:38:36.396Z,1.30
2018-04-29T06:41:03.868Z,1.10
2018-04-29T06:43:31.313Z,1.40
2018-04-29T06:45:58.772Z,1.17
2018-04-29T06:48:26.540Z,1.10
2018-04-29T06:50:53.998Z,1.13
2018-04-29T06:53:21.634Z,1.33
2018-04-29T06:55:49.112Z,1.10
2018-04-29T06:58:16.599Z,1.70
2018-04-29T07:00:44.060Z,1.10
2018-04-29T07:03:11.610Z,1.20
2018-04-29T07:05:39.064Z,1.10
2018-04-29T07:08:06.863Z,1.50
2018-04-29T07:10:34.600Z,1.30
2018-04-29T07:13:02.233Z,1.30
2018-04-29T07:15:29.679Z,1.23
2018-04-29T07:17:57.216Z,1.10
2018-04-29T07:20:24.672Z,1.20
2018-04-29T07:22:52.133Z,1.10
2018-04-29T07:25:19.585Z,1.40
2018-04-29T07:27:47.065Z,1.37
2018-04-29T07:30:14.524Z,1.47
2018-04-29T07:32:41.995Z,1.30
2018-04-29T07:35:09.448Z,1.83
2018-04-29T07:37:36.903Z,1.87
2018-04-29T07:40:04.430Z,1.40
2018-04-29T07:42:31.828Z,1.63
2018-04-29T07:44:59.259Z,1.40
2018-04-29T07:47:26.767Z,1.40
2018-04-29T07:49:54.290Z,1.30
2018-04-29T07:52:22.160Z,1.80
2018-04-29T07:54:49.555Z,1.33
2018-04-29T07:57:17.228Z,1.30
2018-04-29T07:59:44.983Z,1.90
2018-04-29T08:02:12.450Z,3.87
2018-04-29T08:04:40.073Z,3.53
2018-04-29T08:07:07.620Z,4.17
2018-04-29T08:09:35.128Z,4.20
2018-04-29T08:12:02.594Z,4.80
2018-04-29T08:14:30.184Z,4.37
2018-04-29T08:16:58.620Z,4.10
2018-04-29T08:19:26.075Z,3.90
2018-04-29T08:21:53.563Z,4.03
2018-04-29T08:24:21.104Z,4.13
2018-04-29T08:26:48.731Z,3.80
2018-04-29T08:29:16.252Z,3.60
2018-04-29T08:31:43.790Z,3.67
2018-04-29T08:34:11.407Z,3.40
2018-04-29T08:36:38.887Z,3.73
2018-04-29T08:39:06.340Z,3.60
2018-04-29T08:41:33.834Z,3.70
2018-04-29T08:44:01.280Z,3.33
2018-04-29T08:46:28.743Z,3.93
2018-04-29T08:48:56.292Z,3.47
2018-04-29T08:51:23.749Z,3.67
2018-04-29T08:53:51.528Z,3.40
2018-04-29T08:56:18.987Z,3.30
2018-04-29T08:58:46.748Z,3.13
2018-04-29T09:01:14.396Z,3.33
2018-04-29T09:03:42.053Z,3.90
2018-04-29T09:06:09.732Z,4.13
2018-04-29T09:08:37.493Z,3.67
2018-04-29T09:11:05.129Z,3.97
2018-04-29T09:13:32.582Z,3.13
2018-04-29T09:16:00.059Z,3.20
2018-04-29T09:18:27.565Z,3.90
2018-04-29T09:20:54.999Z,3.63
2018-04-29T09:23:22.544Z,3.93
2018-04-29T09:25:50.179Z,3.80
2018-04-29T09:28:17.683Z,3.60
2018-04-29T09:30:45.240Z,3.37
2018-04-29T09:33:12.898Z,4.30
2018-04-29T09:35:41.380Z,3.60
2018-04-29T09:38:09.041Z,3.30
2018-04-29T09:40:36.492Z,3.13
2018-04-29T09:43:03.948Z,3.07
2018-04-29T09:45:31.400Z,3.17
2018-04-29T09:47:58.856Z,3.50
2018-04-29T09:50:26.431Z,2.63
2018-04-29T09:52:53.997Z,3.03
2018-04-29T09:55:21.564Z,2.60
2018-04-29T09:57:49.031Z,3.03
2018-04-29T10:00:16.488Z,3.10
2018-04-29T10:02:47.716Z,3.10
2018-04-29T10:05:15.352Z,2.50
2018-04-29T10:07:42.952Z,3.00
2018-04-29T10:10:10.721Z,2.93
2018-04-29T10:12:38.473Z,2.60
2018-04-29T10:15:06.232Z,2.50
2018-04-29T10:17:33.687Z,2.80
2018-04-29T10:20:01.339Z,2.77
2018-04-29T10:22:28.831Z,2.70
2018-04-29T10:24:56.379Z,2.50
2018-04-29T10:27:24.141Z,2.30
2018-04-29T10:29:51.796Z,2.53
2018-04-29T10:32:19.363Z,2.60
2018-04-29T10:34:46.751Z,2.60
2018-04-29T10:37:14.236Z,2.60
2018-04-29T10:39:41.732Z,2.80
2018-04-29T10:42:09.503Z,2.47
2018-04-29T10:44:37.276Z,2.43
2018-04-29T10:47:05.035Z,2.63
2018-04-29T10:49:32.533Z,2.20
2018-04-29T10:52:00.251Z,3.33
2018-04-29T10:54:27.927Z,3.00
2018-04-29T10:56:55.502Z,4.50
2018-04-29T10:59:23.159Z,4.50
2018-04-29T11:01:50.636Z,4.73
2018-04-29T11:04:18.262Z,4.20
2018-04-29T11:06:45.798Z,3.27
2018-04-29T11:09:13.379Z,3.00
2018-04-29T11:11:41.029Z,2.70
2018-04-29T11:14:08.617Z,2.67
2018-04-29T11:16:36.072Z,3.03
2018-04-29T11:19:03.528Z,2.50
2018-04-29T11:21:30.985Z,2.80
2018-04-29T11:23:58.624Z,2.47
2018-04-29T11:26:26.086Z,3.10
2018-04-29T11:28:53.572Z,2.47
2018-04-29T11:31:21.024Z,2.67
2018-04-29T11:33:48.672Z,2.90
2018-04-29T11:36:16.336Z,2.40
2018-04-29T11:38:43.981Z,2.90
2018-04-29T11:41:11.472Z,2.83
2018-04-29T11:43:38.931Z,2.90
2018-04-29T11:46:06.814Z,2.67
2018-04-29T11:48:34.435Z,2.60
2018-04-29T11:51:02.008Z,2.97
2018-04-29T11:53:29.476Z,2.57
2018-04-29T11:55:57.104Z,2.50
2018-04-29T11:58:24.669Z,2.50
2018-04-29T12:00:52.121Z,2.80
2018-04-29T12:03:19.584Z,2.67
2018-04-29T12:05:47.063Z,2.83
2018-04-29T12:08:14.707Z,2.87
2018-04-29T12:10:42.167Z,2.50
2018-04-29T12:13:09.844Z,3.00
2018-04-29T12:15:37.291Z,3.60
2018-04-29T12:18:04.843Z,2.60
2018-04-29T12:20:32.347Z,2.90
2018-04-29T12:22:59.800Z,2.50
2018-04-29T12:25:27.259Z,2.63
2018-04-29T12:27:54.775Z,2.23
2018-04-29T12:30:22.273Z,2.57
2018-04-29T12:32:49.911Z,2.17
2018-04-29T12:35:17.443Z,2.20
2018-04-29T12:37:44.883Z,2.30
2018-04-29T12:40:12.342Z,2.53
2018-04-29T12:42:39.831Z,2.20
2018-04-29T12:45:07.319Z,2.63
2018-04-29T12:47:34.951Z,2.73
2018-04-29T12:50:02.440Z,2.40
2018-04-29T12:52:29.916Z,2.43
2018-04-29T12:54:57.464Z,2.27
2018-04-29T12:57:25.031Z,2.70
2018-04-29T12:59:52.564Z,2.60
2018-04-29T13:02:20.143Z,2.90
2018-04-29T13:04:47.598Z,2.97
2018-04-29T13:07:15.402Z,2.93
2018-04-29T13:09:43.136Z,3.00
2018-04-29T13:12:10.893Z,3.00
2018-04-29T13:14:38.546Z,2.90
2018-04-29T13:17:06.035Z,2.80
2018-04-29T13:19:33.579Z,2.70
2018-04-29T13:22:01.211Z,2.67
2018-04-29T13:24:28.737Z,2.90
2018-04-29T13:26:56.285Z,2.60
2018-04-29T13:29:24.035Z,2.57
2018-04-29T13:31:52.999Z,2.50
2018-04-29T13:34:20.461Z,3.47
2018-04-29T13:36:47.943Z,3.27
2018-04-29T13:39:15.402Z,3.60
2018-04-29T13:41:43.023Z,3.00
2018-04-29T13:44:10.528Z,3.03
2018-04-29T13:46:38.756Z,3.40
2018-04-29T13:49:06.232Z,2.60
2018-04-29T13:51:33.913Z,3.27
2018-04-29T13:54:01.544Z,4.77
2018-04-29T13:56:29.167Z,4.70
2018-04-29T13:58:56.903Z,3.97
2018-04-29T14:01:24.666Z,3.10
2018-04-29T14:03:52.308Z,3.47
2018-04-29T14:06:19.763Z,3.10
2018-04-29T14:08:47.343Z,3.33
2018-04-29T14:11:14.799Z,2.70
2018-04-29T14:13:42.270Z,2.90
2018-04-29T14:16:09.794Z,2.83
2018-04-29T14:18:37.346Z,2.87
2018-04-29T14:21:04.941Z,3.00
2018-04-29T14:23:32.611Z,3.10
2018-04-29T14:26:00.089Z,3.47
2018-04-29T14:28:27.626Z,3.70
2018-04-29T14:30:55.164Z,3.90
2018-04-29T14:33:22.750Z,3.60
2018-04-29T14:35:50.210Z,3.93
2018-04-29T14:38:17.657Z,3.80
2018-04-29T14:40:45.128Z,4.27
2018-04-29T14:43:12.592Z,3.90
2018-04-29T14:45:41.068Z,3.67
2018-04-29T14:48:08.828Z,4.87
2018-04-29T14:50:36.578Z,4.03
2018-04-29T14:53:04.339Z,3.57
2018-04-29T14:55:31.791Z,2.73
2018-04-29T14:57:59.279Z,2.90
2018-04-29T15:00:26.728Z,3.30
2018-04-29T15:02:54.184Z,3.37
2018-04-29T15:05:21.649Z,4.27
2018-04-29T15:07:49.207Z,4.17
2018-04-29T15:10:16.783Z,3.70
2018-04-29T15:12:44.272Z,3.07
2018-04-29T15:15:11.734Z,2.90
2018-04-29T15:17:39.177Z,3.07
2018-04-29T15:20:06.636Z,2.80
2018-04-29T15:22:34.088Z,3.17
2018-04-29T15:25:01.551Z,3.30
2018-04-29T15:27:29.008Z,3.47
2018-04-29T15:29:56.528Z,7.30
2018-04-29T15:32:24.299Z,6.97
2018-04-29T15:34:51.754Z,4.90
2018-04-29T15:37:19.282Z,4.50
2018-04-29T15:39:46.796Z,4.40
2018-04-29T15:42:14.241Z,4.53
2018-04-29T15:44:41.759Z,4.27
2018-04-29T15:47:09.265Z,4.03
2018-04-29T15:49:36.812Z,5.57
2018-04-29T15:52:04.271Z,7.17
2018-04-29T15:54:31.728Z,8.93
2018-04-29T15:57:00.720Z,8.77
2018-04-29T15:59:28.376Z,7.07
2018-04-29T16:01:55.847Z,6.30
2018-04-29T16:04:23.406Z,5.43
2018-04-29T16:06:51.159Z,5.10
2018-04-29T16:09:18.838Z,5.00
2018-04-29T16:11:46.466Z,5.30
2018-04-29T16:14:14.028Z,4.70
2018-04-29T16:16:41.483Z,3.90
2018-04-29T16:19:08.975Z,4.00
2018-04-29T16:21:36.427Z,4.00
2018-04-29T16:24:03.884Z,3.70
2018-04-29T16:26:31.445Z,3.60
2018-04-29T16:28:58.899Z,3.80
2018-04-29T16:31:26.356Z,3.43
2018-04-29T16:33:54.005Z,4.10
2018-04-29T16:36:21.460Z,4.37
2018-04-29T16:38:49.040Z,8.03
2018-04-29T16:41:16.694Z,7.97
2018-04-29T16:43:44.165Z,6.70
2018-04-29T16:46:11.641Z,7.07
2018-04-29T16:48:39.185Z,6.73
2018-04-29T16:51:06.678Z,6.00
2018-04-29T16:53:34.271Z,5.10
2018-04-29T16:56:01.795Z,4.87
2018-04-29T16:58:29.264Z,4.40
2018-04-29T17:00:56.733Z,4.27
2018-04-29T17:03:24.179Z,4.23
2018-04-29T17:05:51.714Z,3.80
2018-04-29T17:08:19.384Z,4.13
2018-04-29T17:10:46.937Z,3.70
2018-04-29T17:13:14.683Z,3.70
2018-04-29T17:15:42.308Z,4.33
2018-04-29T17:18:09.858Z,3.60
2018-04-29T17:20:37.343Z,3.67
2018-04-29T17:23:04.792Z,2.70
2018-04-29T17:25:32.275Z,3.03
2018-04-29T17:27:59.742Z,2.60
2018-04-29T17:30:27.364Z,3.40
2018-04-29T17:32:54.847Z,2.87
2018-04-29T17:35:22.422Z,3.10
2018-04-29T17:37:49.876Z,2.80
2018-04-29T17:40:17.341Z,2.33
2018-04-29T17:42:44.796Z,2.57
2018-04-29T17:45:12.250Z,2.40
2018-04-29T17:47:39.723Z,2.43
2018-04-29T17:50:07.375Z,2.00
2018-04-29T17:52:34.941Z,2.60
2018-04-29T17:55:02.700Z,2.60
2018-04-29T17:57:30.194Z,2.40
2018-04-29T17:59:57.761Z,2.60
2018-04-29T18:02:25.387Z,2.23
2018-04-29T18:04:52.839Z,2.27
2018-04-29T18:07:20.368Z,2.67
2018-04-29T18:09:47.931Z,3.17
2018-04-29T18:12:15.419Z,2.97
2018-04-29T18:14:42.872Z,3.00
2018-04-29T18:17:10.356Z,3.50
2018-04-29T18:19:38.726Z,3.07
2018-04-29T18:22:07.333Z,3.10
2018-04-29T18:24:35.568Z,3.40
2018-04-29T18:27:03.050Z,2.93
2018-04-29T18:29:30.664Z,3.93
2018-04-29T18:31:58.249Z,3.70
2018-04-29T18:34:25.702Z,4.03
2018-04-29T18:36:53.472Z,3.77
2018-04-29T18:39:21.111Z,4.23
2018-04-29T18:41:48.690Z,3.70
2018-04-29T18:44:16.340Z,3.90
2018-04-29T18:46:44.023Z,3.60
2018-04-29T18:49:11.584Z,3.93
2018-04-29T18:51:39.046Z,3.93
2018-04-29T18:54:06.519Z,4.47
2018-04-29T18:56:33.980Z,4.47
2018-04-29T18:59:01.447Z,4.70
2018-04-29T19:01:28.896Z,4.90
2018-04-29T19:03:56.396Z,5.37
2018-04-29T19:06:23.854Z,5.20
2018-04-29T19:08:51.308Z,5.67
2018-04-29T19:11:18.831Z,5.57
2018-04-29T19:13:46.451Z,5.63
2018-04-29T19:16:13.967Z,5.13
2018-04-29T19:18:41.450Z,5.50
2018-04-29T19:21:08.898Z,5.87
2018-04-29T19:23:36.368Z,5.40
2018-04-29T19:26:07.255Z,5.30
2018-04-29T19:28:35.033Z,5.83
2018-04-29T19:31:03.027Z,5.93
2018-04-29T19:33:32.884Z,6.40
2018-04-29T19:36:00.353Z,6.03
2018-04-29T19:38:27.875Z,5.47
2018-04-29T19:40:55.264Z,5.87
2018-04-29T19:43:22.747Z,5.47
2018-04-29T19:45:50.192Z,5.03
2018-04-29T19:48:19.734Z,4.60
2018-04-29T19:50:48.156Z,5.10
2018-04-29T19:53:15.619Z,5.03
2018-04-29T19:55:43.302Z,4.87
2018-04-29T19:58:10.999Z,4.97
2018-04-29T20:00:39.157Z,4.60
2018-04-29T20:03:07.392Z,5.40
2018-04-29T20:05:35.048Z,4.90
2018-04-29T20:08:02.623Z,4.90
2018-04-29T20:10:30.087Z,5.27
2018-04-29T20:12:58.375Z,5.37
2018-04-29T20:15:25.833Z,4.83
2018-04-29T20:17:55.421Z,4.80
2018-04-29T20:20:24.920Z,5.10
2018-04-29T20:22:53.732Z,5.33
2018-04-29T20:25:22.099Z,4.43
2018-04-29T20:27:49.665Z,4.40
2018-04-29T20:30:17.138Z,5.07
2018-04-29T20:32:45.694Z,4.80
2018-04-29T20:35:13.428Z,4.20
2018-04-29T20:37:43.324Z,4.13
2018-04-29T20:40:11.666Z,4.57
2018-04-29T20:42:39.322Z,5.20
2018-04-29T20:45:09.070Z,4.53
2018-04-29T20:47:37.313Z,5.37
2018-04-29T20:50:04.776Z,4.10
2018-04-29T20:52:32.601Z,4.57
2018-04-29T20:55:00.685Z,4.43
2018-04-29T20:57:28.219Z,3.60
2018-04-29T20:59:56.056Z,4.40
2018-04-29T21:02:23.615Z,4.37
2018-04-29T21:04:54.837Z,4.60
2018-04-29T21:07:22.632Z,4.67
2018-04-29T21:09:50.119Z,4.20
2018-04-29T21:12:18.335Z,4.13
2018-04-29T21:14:45.790Z,3.93
2018-04-29T21:17:13.526Z,4.10
2018-04-29T21:19:40.896Z,3.97
2018-04-29T21:22:08.363Z,4.10
2018-04-29T21:24:35.913Z,4.37
2018-04-29T21:27:03.365Z,4.30
2018-04-29T21:29:30.820Z,3.90
2018-04-29T21:31:58.272Z,3.60
2018-04-29T21:34:25.727Z,3.93
2018-04-29T21:36:53.176Z,3.93
2018-04-29T21:39:20.650Z,4.33
2018-04-29T21:41:48.088Z,3.60
2018-04-29T21:44:15.549Z,3.60
2018-04-29T21:46:42.996Z,3.13
2018-04-29T21:49:10.452Z,4.33
2018-04-29T21:51:37.990Z,3.50
2018-04-29T21:54:05.751Z,3.50
2018-04-29T21:56:33.380Z,4.07
2018-04-29T21:59:01.020Z,3.70
2018-04-29T22:01:28.654Z,3.90
2018-04-29T22:03:56.108Z,3.93
2018-04-29T22:06:23.675Z,3.93
2018-04-29T22:08:51.165Z,4.37
2018-04-29T22:11:18.616Z,3.80
2018-04-29T22:13:46.340Z,3.77
2018-04-29T22:16:13.807Z,3.70
2018-04-29T22:18:41.563Z,4.10
2018-04-29T22:21:09.023Z,3.60
2018-04-29T22:23:36.981Z,3.57
2018-04-29T22:26:04.552Z,3.80
2018-04-29T22:28:32.011Z,3.40
2018-04-29T22:30:59.936Z,3.63
2018-04-29T22:33:27.449Z,3.43
2018-04-29T22:35:54.995Z,3.93
2018-04-29T22:38:22.759Z,3.53
2018-04-29T22:40:50.404Z,3.47
2018-04-29T22:43:17.865Z,3.23
2018-04-29T22:45:45.376Z,3.07
2018-04-29T22:48:12.899Z,3.00
2018-04-29T22:50:40.372Z,3.10
2018-04-29T22:53:07.816Z,3.60
2018-04-29T22:55:35.471Z,3.67
2018-04-29T22:58:02.940Z,3.53
2018-04-29T23:00:30.400Z,3.57
2018-04-29T23:02:57.867Z,3.10
2018-04-29T23:05:26.092Z,3.07
2018-04-29T23:07:53.792Z,3.37
2018-04-29T23:10:21.256Z,3.83
2018-04-29T23:12:48.889Z,3.80
2018-04-29T23:15:16.402Z,2.93
2018-04-29T23:17:43.839Z,3.50
2018-04-29T23:20:11.392Z,3.13
2018-04-29T23:22:39.021Z,3.33
2018-04-29T23:25:06.546Z,3.43
2018-04-29T23:27:33.991Z,3.13
2018-04-29T23:30:01.455Z,3.40
2018-04-29T23:32:28.912Z,3.03
2018-04-29T23:34:56.370Z,3.67
2018-04-29T23:37:23.823Z,3.27
2018-04-29T23:39:51.267Z,3.20
2018-04-29T23:42:18.808Z,3.40
2018-04-29T23:44:46.273Z,2.90
2018-04-29T23:47:13.810Z,3.33
2018-04-29T23:49:41.386Z,2.93
2018-04-29T23:52:08.829Z,3.07
2018-04-29T23:54:36.324Z,3.37
2018-04-29T23:57:03.777Z,3.13
2018-04-29T23:59:31.227Z,2.93
